Time;durP1;ratioP1;P1;durP2;ratioP2;P2;SDS_P1;SDS_P2;PMS_P1;PMS_P2;Temp;Humidity;BMP_temperature;BMP_pressure;BME280_temperature;BME280_humidity;BME280_pressure;Samples;Min_cycle;Max_cycle;Signal;HPM_P1;HPM_P2
2021/03/18 00:01:59;;;;;;;5.77;5.07;;;3.50;99.90;;;;;;5091815;28;20178;-48
2021/03/18 00:04:25;;;;;;;5.07;4.57;;;3.60;99.90;;;;;;5075139;28;20163;-48
2021/03/18 00:06:51;;;;;;;5.30;4.80;;;3.60;99.90;;;;;;5075918;28;20725;-48
2021/03/18 00:09:18;;;;;;;5.70;5.10;;;3.60;99.90;;;;;;5086842;28;20235;-53
2021/03/18 00:11:49;;;;;;;6.63;5.37;;;3.70;99.90;;;;;;5094360;28;20503;-55
2021/03/18 00:14:17;;;;;;;5.23;4.73;;;3.80;99.90;;;;;;5075090;28;20207;-53
2021/03/18 00:16:43;;;;;;;5.67;4.90;;;3.80;99.90;;;;;;5074345;28;20190;-47
2021/03/18 00:19:09;;;;;;;5.60;4.70;;;3.80;99.90;;;;;;5093404;28;20178;-55
2021/03/18 00:21:35;;;;;;;5.20;4.70;;;3.90;99.90;;;;;;5075415;28;20516;-54
2021/03/18 00:24:01;;;;;;;6.00;5.20;;;3.90;99.90;;;;;;5074558;28;20520;-57
2021/03/18 00:26:29;;;;;;;5.77;5.00;;;4.00;99.90;;;;;;5078335;28;20683;-50
2021/03/18 00:28:56;;;;;;;6.03;5.40;;;3.90;99.90;;;;;;5076417;28;20178;-56
2021/03/18 00:31:24;;;;;;;5.63;4.70;;;4.00;99.90;;;;;;5077132;28;20228;-52
2021/03/18 00:33:50;;;;;;;5.30;4.67;;;4.10;99.90;;;;;;5094695;28;20205;-52
2021/03/18 00:36:17;;;;;;;5.70;5.10;;;4.00;99.90;;;;;;5092958;28;20232;-58
2021/03/18 00:38:43;;;;;;;5.57;4.90;;;3.90;99.90;;;;;;5074685;28;20239;-48
2021/03/18 00:41:10;;;;;;;6.10;5.20;;;3.80;99.90;;;;;;5073846;28;20230;-53
2021/03/18 00:43:36;;;;;;;5.53;4.53;;;3.60;99.90;;;;;;5075425;28;20178;-53
2021/03/18 00:46:02;;;;;;;6.07;5.10;;;3.50;99.90;;;;;;5074387;28;20194;-57
2021/03/18 00:48:29;;;;;;;5.07;4.57;;;3.40;99.90;;;;;;5073872;28;20228;-48
2021/03/18 00:50:57;;;;;;;5.43;4.73;;;3.50;99.90;;;;;;5073800;28;20181;-49
2021/03/18 00:53:30;;;;;;;5.30;4.80;;;3.50;99.90;;;;;;5093350;28;20177;-48
2021/03/18 00:55:56;;;;;;;5.83;4.80;;;3.40;99.90;;;;;;5085270;28;20194;-51
2021/03/18 00:58:22;;;;;;;5.77;5.10;;;3.30;99.90;;;;;;5073932;28;20174;-48
2021/03/18 01:00:57;;;;;;;4.90;4.40;;;3.20;99.90;;;;;;5080818;28;20205;-49
2021/03/18 01:03:24;;;;;;;5.80;4.60;;;3.20;99.90;;;;;;5094103;28;20633;-52
2021/03/18 01:05:55;;;;;;;5.70;4.50;;;3.20;99.90;;;;;;5087135;28;20198;-53
2021/03/18 01:08:25;;;;;;;5.20;4.70;;;3.30;99.90;;;;;;5074594;28;20170;-50
2021/03/18 01:10:56;;;;;;;5.63;5.07;;;3.30;99.90;;;;;;5074678;28;20190;-58
2021/03/18 01:13:22;;;;;;;5.13;4.60;;;3.20;99.90;;;;;;5074441;28;20289;-48
2021/03/18 01:15:55;;;;;;;5.93;5.10;;;3.10;99.90;;;;;;5081244;28;20206;-56
2021/03/18 01:18:23;;;;;;;5.13;4.63;;;3.10;99.90;;;;;;5094102;28;20207;-56
2021/03/18 01:20:49;;;;;;;5.57;4.97;;;3.10;99.90;;;;;;5086528;28;20538;-48
2021/03/18 01:23:15;;;;;;;6.47;4.90;;;3.20;99.90;;;;;;5073983;28;20210;-52
2021/03/18 01:25:41;;;;;;;5.87;5.17;;;3.10;99.90;;;;;;5074713;28;20222;-54
2021/03/18 01:28:10;;;;;;;6.60;5.30;;;3.10;99.90;;;;;;5074063;28;20496;-48
2021/03/18 01:30:39;;;;;;;5.70;5.10;;;3.10;99.90;;;;;;5078034;28;20428;-48
2021/03/18 01:33:06;;;;;;;7.77;5.10;;;3.00;99.90;;;;;;5093555;28;20170;-56
2021/03/18 01:35:32;;;;;;;5.73;4.87;;;3.00;99.90;;;;;;5092039;28;20302;-56
2021/03/18 01:37:58;;;;;;;6.30;5.60;;;3.00;99.90;;;;;;5094168;28;20645;-52
2021/03/18 01:40:27;;;;;;;5.53;4.77;;;3.10;99.90;;;;;;5092163;28;20201;-55
2021/03/18 01:42:53;;;;;;;6.43;5.57;;;3.00;99.90;;;;;;5073423;28;20168;-54
2021/03/18 01:45:19;;;;;;;5.63;4.87;;;3.00;99.90;;;;;;5073310;28;20198;-51
2021/03/18 01:47:51;;;;;;;6.27;5.13;;;3.10;99.90;;;;;;5093813;28;20182;-56
2021/03/18 01:50:19;;;;;;;5.70;5.10;;;3.20;99.90;;;;;;5094055;28;20508;-58
2021/03/18 01:52:44;;;;;;;6.67;5.40;;;3.20;99.90;;;;;;5076145;28;20253;-50
2021/03/18 01:55:16;;;;;;;6.53;5.53;;;3.10;99.90;;;;;;5077256;28;20276;-52
2021/03/18 01:57:41;;;;;;;5.70;4.87;;;3.10;99.90;;;;;;5096090;28;20192;-48
2021/03/18 02:00:09;;;;;;;6.30;5.30;;;3.20;99.90;;;;;;5097428;28;20469;-49
2021/03/18 02:02:35;;;;;;;7.87;5.60;;;3.40;99.90;;;;;;5095516;28;20257;-48
2021/03/18 02:05:02;;;;;;;6.43;5.73;;;3.60;99.90;;;;;;5085595;28;20206;-57
2021/03/18 02:07:27;;;;;;;5.53;4.80;;;3.70;99.90;;;;;;5076904;28;20235;-56
2021/03/18 02:09:53;;;;;;;7.37;5.70;;;3.70;99.90;;;;;;5079042;28;20190;-52
2021/03/18 02:12:19;;;;;;;7.57;5.50;;;3.80;99.90;;;;;;5087202;28;20279;-48
2021/03/18 02:14:45;;;;;;;5.77;5.17;;;3.90;99.90;;;;;;5088278;28;20202;-48
2021/03/18 02:17:13;;;;;;;6.50;5.00;;;4.00;99.90;;;;;;5086305;28;20197;-58
2021/03/18 02:20:14;;;;;;;6.40;5.40;;;3.90;99.90;;;;;;5083281;28;20197;-48
2021/03/18 02:23:20;;;;;;;6.47;5.20;;;3.90;99.90;;;;;;5090889;28;20166;-48
2021/03/18 02:26:08;;;;;;;5.90;4.97;;;3.70;99.90;;;;;;5090553;28;20195;-58
2021/03/18 02:28:51;;;;;;;6.57;5.40;;;3.60;99.90;;;;;;5083705;28;20183;-57
2021/03/18 02:31:31;;;;;;;6.43;5.47;;;3.60;99.90;;;;;;5079515;28;20219;-54
2021/03/18 02:34:27;;;;;;;5.30;4.80;;;3.60;99.90;;;;;;5085363;28;20213;-53
2021/03/18 02:36:59;;;;;;;6.00;5.37;;;3.60;99.90;;;;;;5076185;28;20723;-49
2021/03/18 02:39:31;;;;;;;6.07;5.43;;;3.50;99.90;;;;;;5074311;28;20171;-48
2021/03/18 02:42:01;;;;;;;7.50;5.97;;;3.40;99.90;;;;;;5074347;28;20665;-57
2021/03/18 02:44:29;;;;;;;7.83;5.97;;;3.40;99.90;;;;;;5074498;28;20665;-52
2021/03/18 02:47:04;;;;;;;7.50;6.67;;;3.20;99.90;;;;;;5074418;28;20187;-48
2021/03/18 02:49:35;;;;;;;6.30;5.70;;;3.30;99.90;;;;;;5074460;28;20197;-49
2021/03/18 02:52:02;;;;;;;7.00;5.97;;;3.20;99.90;;;;;;5074229;28;20209;-48
2021/03/18 02:54:29;;;;;;;6.97;6.27;;;3.20;99.90;;;;;;5076196;28;20170;-56
2021/03/18 02:56:59;;;;;;;6.73;6.03;;;3.20;99.90;;;;;;5076414;28;20504;-48
2021/03/18 02:59:30;;;;;;;6.60;5.90;;;3.20;99.90;;;;;;5076595;28;20171;-59
2021/03/18 03:01:57;;;;;;;8.17;5.87;;;3.20;99.90;;;;;;5076296;28;20188;-58
2021/03/18 03:04:24;;;;;;;6.87;5.83;;;3.30;99.90;;;;;;5075398;28;20243;-51
2021/03/18 03:06:52;;;;;;;7.87;6.33;;;3.20;99.90;;;;;;5076210;28;20194;-48
2021/03/18 03:09:18;;;;;;;7.00;5.87;;;3.20;99.90;;;;;;5075946;28;20197;-54
2021/03/18 03:11:44;;;;;;;8.63;6.17;;;3.20;99.90;;;;;;5075795;28;20167;-51
2021/03/18 03:14:11;;;;;;;7.70;6.70;;;3.20;99.90;;;;;;5075070;28;20243;-50
2021/03/18 03:16:37;;;;;;;7.70;6.70;;;3.10;99.90;;;;;;5076427;28;20522;-49
2021/03/18 03:19:05;;;;;;;6.40;5.73;;;3.00;99.90;;;;;;5075535;28;20308;-57
2021/03/18 03:21:31;;;;;;;7.27;6.53;;;2.90;99.90;;;;;;5087036;28;20448;-51
2021/03/18 03:23:58;;;;;;;7.10;6.33;;;2.90;99.90;;;;;;5075614;28;20530;-48
2021/03/18 03:26:25;;;;;;;7.73;6.20;;;2.80;99.90;;;;;;5087421;28;20186;-51
2021/03/18 03:28:52;;;;;;;7.40;6.33;;;2.80;99.90;;;;;;5095670;28;20400;-54
2021/03/18 03:31:18;;;;;;;6.77;6.03;;;2.80;99.90;;;;;;5095624;28;20181;-56
2021/03/18 03:33:44;;;;;;;11.13;7.47;;;2.80;99.90;;;;;;5095681;28;20182;-57
2021/03/18 03:36:10;;;;;;;7.87;6.60;;;2.80;99.90;;;;;;5095762;28;20200;-48
2021/03/18 03:38:36;;;;;;;7.43;6.63;;;2.80;99.90;;;;;;5083761;28;20178;-48
2021/03/18 03:41:03;;;;;;;8.33;7.27;;;2.90;99.90;;;;;;5075235;28;20556;-48
2021/03/18 03:43:29;;;;;;;7.77;6.60;;;2.80;99.90;;;;;;5075415;28;20635;-51
2021/03/18 03:45:54;;;;;;;7.77;6.80;;;2.80;99.90;;;;;;5075430;28;20202;-56
2021/03/18 03:48:21;;;;;;;9.17;6.90;;;2.80;99.90;;;;;;5075319;28;20194;-52
2021/03/18 03:50:48;;;;;;;8.07;7.27;;;2.70;99.90;;;;;;5075371;28;20183;-48
2021/03/18 03:53:15;;;;;;;8.37;7.33;;;2.70;99.90;;;;;;5087250;28;20548;-53
2021/03/18 03:56:04;;;;;;;8.17;7.20;;;2.60;99.90;;;;;;5074946;28;20440;-52
2021/03/18 03:58:41;;;;;;;8.37;7.10;;;2.50;99.90;;;;;;5085422;28;20414;-55
2021/03/18 04:01:16;;;;;;;8.23;7.23;;;2.50;99.90;;;;;;5095282;28;20477;-54
2021/03/18 04:03:44;;;;;;;9.17;7.70;;;2.40;99.90;;;;;;5095690;28;20506;-48
2021/03/18 04:06:11;;;;;;;9.97;7.80;;;2.30;99.90;;;;;;5094960;28;20489;-51
2021/03/18 04:08:40;;;;;;;10.40;7.93;;;2.20;99.90;;;;;;5095238;28;20438;-52
2021/03/18 04:11:43;;;;;;;9.63;7.80;;;2.20;99.90;;;;;;5080905;28;20951;-51
2021/03/18 04:14:12;;;;;;;9.10;7.80;;;2.20;99.90;;;;;;5078247;28;20408;-48
2021/03/18 04:16:41;;;;;;;10.57;8.43;;;2.20;99.90;;;;;;5093884;28;20416;-53
2021/03/18 04:19:09;;;;;;;11.63;8.03;;;2.10;99.90;;;;;;5095184;28;20407;-55
2021/03/18 04:21:39;;;;;;;9.33;7.90;;;2.00;99.90;;;;;;5088046;28;20488;-53
2021/03/18 04:24:07;;;;;;;9.63;8.30;;;1.90;99.90;;;;;;5089272;28;20432;-57
2021/03/18 04:26:38;;;;;;;10.10;8.00;;;1.90;99.90;;;;;;5082559;28;20439;-58
2021/03/18 04:29:05;;;;;;;9.90;8.27;;;2.00;99.90;;;;;;5092519;28;20453;-49
2021/03/18 04:31:33;;;;;;;9.53;8.33;;;1.90;99.90;;;;;;5075274;28;20912;-52
2021/03/18 04:34:00;;;;;;;11.13;8.53;;;1.90;99.90;;;;;;5073955;28;20437;-54
2021/03/18 04:36:27;;;;;;;9.07;8.10;;;1.90;99.90;;;;;;5092215;28;20444;-58
2021/03/18 04:38:54;;;;;;;10.03;8.77;;;2.00;99.90;;;;;;5076706;28;20435;-49
2021/03/18 04:44:44;;;;;;;9.83;8.43;;;1.90;99.90;;;;;;5074176;28;20395;-51
2021/03/18 04:47:13;;;;;;;10.47;8.67;;;1.80;99.90;;;;;;5074577;28;20473;-48
2021/03/18 04:49:41;;;;;;;11.67;9.50;;;1.80;99.90;;;;;;5074188;28;20465;-49
2021/03/18 04:52:07;;;;;;;11.00;9.43;;;1.80;99.90;;;;;;5089435;28;20421;-48
2021/03/18 04:54:32;;;;;;;10.57;8.90;;;1.80;99.90;;;;;;5082722;28;20426;-58
2021/03/18 04:56:58;;;;;;;11.00;8.97;;;1.80;99.90;;;;;;5094719;28;20197;-54
2021/03/18 04:59:25;;;;;;;11.83;9.13;;;1.70;99.90;;;;;;5092340;28;20174;-58
2021/03/18 05:01:52;;;;;;;11.57;9.70;;;1.70;99.90;;;;;;5088629;28;20413;-48
2021/03/18 05:04:20;;;;;;;11.33;9.13;;;1.60;99.90;;;;;;5074997;28;20423;-50
2021/03/18 05:06:50;;;;;;;12.43;9.33;;;1.60;99.90;;;;;;5077780;28;20482;-48
2021/03/18 05:09:17;;;;;;;12.03;9.73;;;1.60;99.90;;;;;;5074847;28;20464;-48
2021/03/18 05:11:43;;;;;;;13.50;9.70;;;1.60;99.90;;;;;;5076132;28;20460;-49
2021/03/18 05:14:09;;;;;;;12.70;10.00;;;1.60;99.90;;;;;;5073856;28;20491;-48
2021/03/18 05:16:36;;;;;;;11.43;9.50;;;1.60;99.90;;;;;;5084859;28;21023;-56
2021/03/18 05:19:04;;;;;;;12.20;9.80;;;1.60;99.90;;;;;;5093533;28;20683;-56
2021/03/18 05:21:31;;;;;;;12.13;9.47;;;1.70;99.90;;;;;;5077112;28;20443;-48
2021/03/18 05:23:58;;;;;;;12.60;10.13;;;1.70;99.90;;;;;;5092927;28;20499;-53
2021/03/18 05:26:24;;;;;;;11.83;10.03;;;1.70;99.90;;;;;;5094128;28;20420;-55
2021/03/18 05:28:49;;;;;;;12.40;9.60;;;1.80;99.90;;;;;;5083993;28;20756;-51
2021/03/18 05:31:15;;;;;;;11.47;9.50;;;1.80;99.90;;;;;;5078757;28;20284;-52
2021/03/18 05:33:41;;;;;;;12.77;9.70;;;1.90;99.90;;;;;;5085475;28;20264;-50
2021/03/18 05:36:07;;;;;;;11.10;9.53;;;2.00;99.90;;;;;;5096706;28;20202;-53
2021/03/18 05:38:32;;;;;;;13.30;10.00;;;2.00;99.90;;;;;;5098268;28;20272;-48
2021/03/18 05:40:58;;;;;;;12.23;10.00;;;1.90;99.90;;;;;;5096052;28;20653;-48
2021/03/18 05:43:25;;;;;;;12.67;10.40;;;1.90;99.90;;;;;;5096336;28;20707;-48
2021/03/18 05:45:51;;;;;;;11.93;10.10;;;2.00;99.90;;;;;;5097623;28;20560;-50
2021/03/18 05:48:19;;;;;;;13.33;10.23;;;2.00;99.90;;;;;;5096092;28;20518;-58
2021/03/18 05:50:44;;;;;;;12.43;10.07;;;2.10;99.90;;;;;;5082101;28;20427;-54
2021/03/18 05:53:11;;;;;;;12.63;10.20;;;2.10;99.90;;;;;;5078454;28;20428;-53
2021/03/18 05:55:37;;;;;;;11.53;9.60;;;2.20;99.90;;;;;;5079230;28;20221;-56
2021/03/18 05:58:04;;;;;;;12.80;10.10;;;2.20;99.90;;;;;;5078750;28;20442;-52
2021/03/18 06:00:31;;;;;;;12.90;10.60;;;2.30;99.90;;;;;;5078552;28;20808;-49
2021/03/18 06:02:57;;;;;;;13.97;11.73;;;2.30;99.90;;;;;;5079227;28;20420;-48
2021/03/18 06:05:23;;;;;;;12.00;9.80;;;2.30;99.90;;;;;;5077059;28;20425;-50
2021/03/18 06:07:49;;;;;;;13.40;10.87;;;2.40;99.90;;;;;;5078276;28;20485;-54
2021/03/18 06:10:22;;;;;;;11.77;10.07;;;2.40;99.90;;;;;;5077999;28;20201;-48
2021/03/18 06:12:49;;;;;;;12.27;9.73;;;2.50;99.90;;;;;;5078455;28;20479;-51
2021/03/18 06:15:17;;;;;;;10.80;9.47;;;2.50;99.90;;;;;;5076958;28;20455;-50
2021/03/18 06:17:43;;;;;;;12.73;9.40;;;2.50;99.90;;;;;;5078293;28;20453;-48
2021/03/18 06:20:11;;;;;;;12.93;9.97;;;2.60;99.90;;;;;;5077382;28;20452;-56
2021/03/18 06:22:45;;;;;;;12.90;10.17;;;2.70;99.90;;;;;;5079152;28;20424;-54
2021/03/18 06:25:37;;;;;;;13.63;10.07;;;2.70;99.90;;;;;;5077805;28;20962;-48
2021/03/18 06:28:27;;;;;;;13.10;10.40;;;2.70;99.90;;;;;;5074134;28;20217;-51
2021/03/18 06:31:04;;;;;;;11.87;9.40;;;2.70;99.90;;;;;;5078109;28;20476;-50
2021/03/18 06:33:38;;;;;;;12.73;10.57;;;2.80;99.90;;;;;;5077098;28;20173;-48
2021/03/18 06:36:34;;;;;;;13.67;10.97;;;2.80;99.90;;;;;;5077020;28;20730;-57
2021/03/18 06:39:11;;;;;;;13.47;10.60;;;2.90;99.90;;;;;;5000033;28;20571;-55
2021/03/18 06:41:48;;;;;;;14.13;11.20;;;3.10;99.90;;;;;;5008640;28;20207;-52
2021/03/18 06:44:30;;;;;;;14.27;11.50;;;3.30;99.90;;;;;;4997472;28;20188;-49
2021/03/18 06:47:16;;;;;;;12.47;10.67;;;3.50;99.90;;;;;;4998174;28;20201;-50
2021/03/18 06:49:42;;;;;;;13.47;10.10;;;3.70;99.90;;;;;;5005981;28;20197;-48
2021/03/18 06:52:10;;;;;;;13.13;10.90;;;3.80;99.90;;;;;;5014480;28;20195;-50
2021/03/18 06:54:43;;;;;;;13.27;10.93;;;3.80;99.90;;;;;;5004813;28;20196;-56
2021/03/18 06:57:10;;;;;;;12.83;10.53;;;3.70;99.90;;;;;;4996459;28;20656;-50
2021/03/18 06:59:38;;;;;;;12.97;10.40;;;3.70;99.90;;;;;;5013578;28;20240;-54
2021/03/18 07:02:04;;;;;;;12.80;10.33;;;3.70;99.90;;;;;;5013785;28;20207;-48
2021/03/18 07:04:35;;;;;;;12.90;10.67;;;3.70;99.90;;;;;;5002880;28;20181;-54
2021/03/18 07:07:01;;;;;;;13.13;10.30;;;3.70;99.90;;;;;;4994585;28;20566;-54
2021/03/18 07:09:30;;;;;;;12.60;10.33;;;3.80;99.90;;;;;;5006055;28;20668;-55
2021/03/18 07:12:00;;;;;;;13.03;10.33;;;3.80;99.90;;;;;;5007099;28;20216;-59
2021/03/18 07:14:53;;;;;;;13.03;9.97;;;3.70;99.90;;;;;;5002925;28;20173;-54
2021/03/18 07:17:27;;;;;;;13.10;10.93;;;3.70;99.90;;;;;;5079416;28;20189;-48
2021/03/18 07:20:09;;;;;;;12.03;10.10;;;3.70;99.90;;;;;;5090279;28;20201;-48
2021/03/18 07:22:41;;;;;;;11.93;10.20;;;3.80;99.90;;;;;;5076283;28;20155;-54
2021/03/18 07:25:09;;;;;;;14.47;10.30;;;3.90;99.90;;;;;;5083379;28;20533;-49
2021/03/18 07:27:42;;;;;;;11.93;9.63;;;3.90;99.90;;;;;;5087497;28;20551;-57
2021/03/18 07:30:09;;;;;;;11.97;9.80;;;4.10;99.90;;;;;;5094917;28;20173;-58
2021/03/18 07:32:35;;;;;;;10.97;9.27;;;4.40;99.90;;;;;;5094023;28;20182;-58
2021/03/18 07:35:01;;;;;;;11.40;8.93;;;4.70;99.90;;;;;;5091010;28;20677;-48
2021/03/18 07:37:26;;;;;;;10.27;8.00;;;4.80;99.90;;;;;;5075534;28;20170;-48
2021/03/18 07:39:52;;;;;;;9.30;8.00;;;4.80;99.90;;;;;;5082522;28;20201;-48
2021/03/18 07:42:18;;;;;;;9.63;8.27;;;4.80;99.90;;;;;;5094345;28;20499;-47
2021/03/18 07:44:45;;;;;;;10.23;8.20;;;4.90;99.90;;;;;;5087358;28;20190;-56
2021/03/18 07:47:12;;;;;;;8.67;7.77;;;5.00;99.90;;;;;;5090454;28;20174;-52
2021/03/18 07:49:44;;;;;;;8.40;7.50;;;5.40;99.90;;;;;;5094853;28;20201;-54
2021/03/18 07:52:22;;;;;;;9.27;8.37;;;5.70;99.90;;;;;;5093741;28;20166;-48
2021/03/18 07:54:49;;;;;;;10.23;8.10;;;6.00;99.90;;;;;;5095481;28;20244;-49
2021/03/18 07:57:15;;;;;;;12.20;9.43;;;6.00;99.90;;;;;;5095657;28;20166;-48
2021/03/18 07:59:42;;;;;;;11.27;9.97;;;5.70;99.90;;;;;;5095309;28;20181;-50
2021/03/18 08:02:21;;;;;;;11.93;9.17;;;5.30;99.90;;;;;;5095400;28;20629;-52
2021/03/18 08:04:52;;;;;;;10.40;9.13;;;5.20;99.90;;;;;;5095095;28;20172;-59
2021/03/18 08:07:44;;;;;;;10.97;9.43;;;5.00;99.90;;;;;;5095016;28;20228;-49
2021/03/18 08:10:30;;;;;;;10.13;8.63;;;5.30;99.90;;;;;;5094931;28;20189;-48
2021/03/18 08:13:00;;;;;;;10.67;8.67;;;5.60;99.90;;;;;;5082607;28;20697;-56
2021/03/18 08:15:41;;;;;;;9.67;8.53;;;5.80;99.90;;;;;;5094959;28;20194;-51
2021/03/18 08:18:13;;;;;;;10.37;8.53;;;5.90;99.90;;;;;;5094643;28;20230;-57
2021/03/18 08:20:44;;;;;;;12.90;8.63;;;6.00;99.90;;;;;;5094522;28;20208;-58
2021/03/18 08:23:28;;;;;;;9.70;8.43;;;5.90;99.90;;;;;;5093928;28;20242;-57
2021/03/18 08:25:55;;;;;;;11.67;8.50;;;5.80;99.90;;;;;;5094959;28;20190;-48
2021/03/18 08:28:55;;;;;;;9.60;8.33;;;5.80;99.90;;;;;;5094323;28;20519;-54
2021/03/18 08:31:41;;;;;;;11.70;9.10;;;5.80;99.90;;;;;;5083453;28;20185;-51
2021/03/18 08:34:07;;;;;;;9.73;8.27;;;5.70;99.90;;;;;;5093815;28;20774;-54
2021/03/18 08:36:51;;;;;;;10.77;8.97;;;5.60;99.90;;;;;;5094750;28;20221;-58
2021/03/18 08:39:42;;;;;;;9.97;8.63;;;5.60;99.90;;;;;;5094455;28;20166;-53
2021/03/18 08:42:30;;;;;;;9.67;8.20;;;5.70;99.90;;;;;;5094513;28;20190;-48
2021/03/18 08:45:01;;;;;;;9.07;7.67;;;6.00;99.90;;;;;;5094514;28;20681;-56
2021/03/18 08:47:42;;;;;;;8.17;7.37;;;6.20;99.90;;;;;;5094351;28;20200;-48
2021/03/18 08:50:25;;;;;;;8.47;7.57;;;6.40;99.90;;;;;;5094271;28;20169;-56
2021/03/18 08:52:52;;;;;;;9.30;7.70;;;6.50;99.90;;;;;;5094548;28;20173;-50
2021/03/18 08:55:38;;;;;;;8.00;6.37;;;6.80;99.90;;;;;;5094089;28;20194;-53
2021/03/18 08:58:05;;;;;;;7.27;6.50;;;7.20;99.90;;;;;;5085328;27;20184;-51
2021/03/18 09:00:32;;;;;;;6.53;5.93;;;7.40;99.90;;;;;;5104622;28;20186;-48
2021/03/18 09:02:58;;;;;;;6.73;6.03;;;7.50;99.90;;;;;;5090858;28;20201;-48
2021/03/18 09:05:24;;;;;;;5.97;5.37;;;7.30;99.90;;;;;;5093457;28;20194;-49
2021/03/18 09:07:54;;;;;;;7.03;6.13;;;7.20;99.90;;;;;;5093988;28;20215;-50
2021/03/18 09:10:21;;;;;;;6.80;6.10;;;7.20;99.90;;;;;;5093763;28;20220;-54
2021/03/18 09:12:58;;;;;;;6.03;5.43;;;6.90;99.90;;;;;;5094128;28;20193;-47
2021/03/18 09:15:33;;;;;;;5.10;4.60;;;7.00;99.90;;;;;;5094153;28;20189;-48
2021/03/18 09:18:11;;;;;;;4.50;4.10;;;7.30;99.90;;;;;;5094038;28;20164;-54
2021/03/18 09:20:37;;;;;;;5.13;4.60;;;7.90;99.90;;;;;;5091936;28;20292;-49
2021/03/18 09:23:10;;;;;;;4.83;3.80;;;8.60;99.90;;;;;;5093589;28;20223;-57
2021/03/18 09:25:36;;;;;;;4.00;3.60;;;9.20;99.90;;;;;;5093770;28;20677;-56
2021/03/18 09:28:02;;;;;;;4.10;3.70;;;9.70;99.90;;;;;;5092855;28;20188;-55
2021/03/18 09:30:31;;;;;;;4.43;3.73;;;10.20;96.60;;;;;;5083154;28;20182;-50
2021/03/18 09:32:58;;;;;;;4.30;3.53;;;10.30;95.90;;;;;;5079313;28;20180;-60
2021/03/18 09:35:26;;;;;;;3.53;3.23;;;10.60;95.60;;;;;;5094420;28;20186;-54
2021/03/18 09:37:52;;;;;;;4.40;3.57;;;10.60;92.80;;;;;;5093648;28;20173;-50
2021/03/18 09:40:29;;;;;;;3.20;2.70;;;10.80;91.80;;;;;;5093828;28;20182;-60
2021/03/18 09:42:55;;;;;;;4.27;3.87;;;11.10;90.30;;;;;;5093992;28;20177;-60
2021/03/18 09:45:20;;;;;;;3.50;3.20;;;11.10;86.90;;;;;;5095931;28;20199;-47
2021/03/18 09:47:49;;;;;;;3.90;3.43;;;10.70;84.50;;;;;;5108756;28;20183;-49
2021/03/18 09:50:15;;;;;;;3.27;3.03;;;10.50;90.00;;;;;;5103177;28;20646;-60
2021/03/18 09:52:40;;;;;;;3.70;3.40;;;10.70;90.90;;;;;;5084658;27;20201;-52
2021/03/18 09:55:12;;;;;;;3.90;3.43;;;10.90;89.60;;;;;;5083805;28;20202;-51
2021/03/18 09:57:37;;;;;;;3.70;3.27;;;11.40;90.20;;;;;;5077883;28;20179;-48
2021/03/18 10:00:05;;;;;;;3.60;3.30;;;11.60;87.20;;;;;;5076498;28;20255;-51
2021/03/18 10:02:30;;;;;;;5.60;4.70;;;11.20;85.50;;;;;;5078868;28;20183;-58
2021/03/18 10:04:56;;;;;;;5.97;5.37;;;10.00;91.20;;;;;;5077716;28;20559;-57
2021/03/18 10:07:30;;;;;;;5.67;4.90;;;9.40;94.10;;;;;;5078098;28;20178;-55
2021/03/18 10:09:56;;;;;;;6.67;5.30;;;8.50;94.00;;;;;;5068278;28;20196;-57
2021/03/18 10:12:25;;;;;;;5.83;5.27;;;8.00;94.70;;;;;;5087262;28;20225;-49
2021/03/18 10:14:59;;;;;;;6.73;5.23;;;7.70;95.20;;;;;;5082058;28;20264;-50
2021/03/18 10:17:27;;;;;;;6.33;5.27;;;7.60;95.10;;;;;;5088335;28;20587;-48
2021/03/18 10:19:57;;;;;;;5.47;4.90;;;7.60;95.20;;;;;;5106422;28;20233;-55
2021/03/18 10:22:28;;;;;;;5.37;4.60;;;7.60;97.50;;;;;;5110946;28;20169;-51
2021/03/18 10:25:04;;;;;;;5.43;4.10;;;7.60;95.00;;;;;;5100982;28;20176;-50
2021/03/18 10:27:35;;;;;;;5.20;4.67;;;7.60;99.90;;;;;;5107150;28;20193;-53
2021/03/18 10:30:09;;;;;;;5.00;4.30;;;8.10;99.90;;;;;;5108841;28;20582;-55
2021/03/18 10:32:36;;;;;;;4.63;4.17;;;7.20;97.40;;;;;;5098817;28;20739;-56
2021/03/18 10:35:03;;;;;;;4.77;4.30;;;7.70;94.40;;;;;;5095488;28;20252;-56
2021/03/18 10:37:38;;;;;;;20.80;15.87;;;7.80;94.40;;;;;;5091892;28;20221;-48
2021/03/18 10:40:23;;;;;;;5.10;4.27;;;7.70;94.40;;;;;;5096069;28;20245;-48
2021/03/18 10:42:51;;;;;;;70.23;45.50;;;7.70;94.80;;;;;;5095538;28;20533;-57
2021/03/18 10:45:29;;;;;;;3.87;3.47;;;7.70;95.40;;;;;;5095991;28;20190;-51
2021/03/18 10:47:59;;;;;;;2.50;2.30;;;7.70;94.40;;;;;;5094931;28;20170;-58
2021/03/18 10:50:28;;;;;;;3.13;2.73;;;7.60;94.00;;;;;;5096140;28;20644;-54
2021/03/18 10:52:57;;;;;;;2.30;2.10;;;7.50;95.10;;;;;;5095506;28;20170;-56
2021/03/18 10:55:25;;;;;;;2.23;2.03;;;7.40;95.70;;;;;;5095720;28;20202;-54
2021/03/18 10:58:02;;;;;;;2.37;2.17;;;7.20;95.60;;;;;;5096271;28;20186;-49
2021/03/18 11:00:31;;;;;;;2.10;1.90;;;7.10;97.30;;;;;;5095826;28;20205;-53
2021/03/18 11:03:04;;;;;;;2.27;2.07;;;7.10;96.90;;;;;;5095221;28;20589;-58
2021/03/18 11:05:44;;;;;;;2.50;2.30;;;6.70;96.30;;;;;;5095529;28;20201;-55
2021/03/18 11:08:10;;;;;;;2.10;1.90;;;6.20;98.10;;;;;;5085622;28;20205;-49
2021/03/18 11:10:48;;;;;;;2.83;2.10;;;5.90;99.80;;;;;;5078992;28;20240;-54
2021/03/18 11:13:20;;;;;;;2.50;2.30;;;5.80;99.90;;;;;;5075114;28;20649;-50
2021/03/18 11:15:55;;;;;;;2.70;1.93;;;6.10;99.90;;;;;;5074208;28;20670;-54
2021/03/18 11:18:41;;;;;;;3.40;1.90;;;7.50;99.90;;;;;;5075536;28;20170;-58
2021/03/18 11:21:32;;;;;;;2.37;2.17;;;10.90;99.90;;;;;;5079970;28;20895;-58
2021/03/18 11:24:08;;;;;;;2.17;1.97;;;13.90;93.50;;;;;;5115292;28;20571;-56
2021/03/18 11:26:36;;;;;;;2.30;2.10;;;15.60;86.30;;;;;;5102579;28;20193;-57
2021/03/18 11:29:13;;;;;;;2.30;1.87;;;17.40;77.10;;;;;;5091488;28;20170;-49
2021/03/18 11:31:45;;;;;;;1.83;1.73;;;19.10;66.50;;;;;;5082740;28;20265;-55
2021/03/18 11:34:24;;;;;;;1.65;1.55;;;19.00;63.70;;;;;;5106975;28;20180;-54
2021/03/18 11:36:54;;;;;;;2.13;1.92;;;18.90;62.40;;;;;;5108041;28;20556;-49
2021/03/18 11:39:21;;;;;;;1.90;1.80;;;19.80;66.30;;;;;;5085425;28;20182;-53
2021/03/18 11:41:48;;;;;;;2.30;2.10;;;21.00;58.80;;;;;;5087028;28;20204;-54
2021/03/18 11:44:14;;;;;;;2.63;2.17;;;19.80;58.50;;;;;;5093321;28;20301;-57
2021/03/18 11:46:40;;;;;;;3.35;3.05;;;17.50;65.30;;;;;;5097115;28;20290;-52
2021/03/18 11:49:06;;;;;;;4.07;3.70;;;16.60;65.30;;;;;;5084568;28;20178;-55
2021/03/18 11:51:32;;;;;;;4.03;3.73;;;15.80;68.00;;;;;;5092897;28;20185;-49
2021/03/18 11:53:58;;;;;;;4.63;3.87;;;16.30;71.60;;;;;;5092085;28;20181;-50
2021/03/18 11:56:24;;;;;;;3.87;3.47;;;14.70;71.50;;;;;;5084665;28;20206;-53
2021/03/18 11:58:50;;;;;;;3.90;3.60;;;16.00;76.00;;;;;;5088934;28;20315;-49
2021/03/18 12:01:15;;;;;;;4.00;3.60;;;16.60;71.40;;;;;;5102197;28;20204;-49
2021/03/18 12:03:42;;;;;;;4.03;3.63;;;16.70;69.60;;;;;;5101332;28;20193;-52
2021/03/18 12:06:07;;;;;;;3.15;2.95;;;16.70;69.50;;;;;;5091122;28;20203;-54
2021/03/18 12:08:33;;;;;;;2.45;2.25;;;17.50;72.70;;;;;;5095903;28;20186;-52
2021/03/18 12:10:59;;;;;;;2.67;2.47;;;17.00;64.10;;;;;;5095390;28;20202;-54
2021/03/18 12:13:25;;;;;;;3.70;2.53;;;15.90;66.80;;;;;;5096496;28;20183;-55
2021/03/18 12:15:50;;;;;;;3.57;3.27;;;15.40;70.10;;;;;;5089568;28;20204;-48
2021/03/18 12:18:17;;;;;;;4.40;4.00;;;14.80;73.50;;;;;;5084545;28;20259;-49
2021/03/18 12:20:42;;;;;;;4.10;3.80;;;13.10;77.30;;;;;;5087177;28;20554;-51
2021/03/18 12:23:08;;;;;;;4.23;3.80;;;12.10;81.10;;;;;;5074539;28;20205;-50
2021/03/18 12:25:33;;;;;;;4.53;4.00;;;12.00;84.80;;;;;;5082786;28;20232;-49
2021/03/18 12:27:59;;;;;;;4.90;4.40;;;12.00;85.90;;;;;;5093657;28;20239;-51
2021/03/18 12:30:25;;;;;;;4.70;4.20;;;11.80;84.50;;;;;;5097223;28;20180;-53
2021/03/18 12:32:52;;;;;;;4.60;4.00;;;11.80;85.20;;;;;;5091389;28;20547;-52
2021/03/18 12:35:20;;;;;;;3.93;3.20;;;11.60;86.20;;;;;;5087127;28;20246;-56
2021/03/18 12:37:47;;;;;;;4.63;3.67;;;12.40;88.30;;;;;;5082485;28;20214;-49
2021/03/18 12:40:14;;;;;;;3.50;3.20;;;12.10;84.70;;;;;;5077868;28;20734;-49
2021/03/18 12:42:41;;;;;;;4.00;3.60;;;11.60;83.50;;;;;;5099262;28;20179;-55
2021/03/18 12:45:09;;;;;;;3.50;3.10;;;12.00;87.00;;;;;;5083668;28;20193;-58
2021/03/18 12:47:35;;;;;;;3.90;3.60;;;12.20;83.60;;;;;;5071408;28;20183;-59
2021/03/18 12:50:03;;;;;;;3.40;3.10;;;12.00;84.10;;;;;;5080606;28;20322;-49
2021/03/18 12:52:28;;;;;;;3.30;3.00;;;12.50;80.80;;;;;;5079208;28;20216;-49
2021/03/18 12:54:54;;;;;;;3.60;3.30;;;12.90;79.30;;;;;;5090775;28;20253;-54
2021/03/18 12:57:19;;;;;;;3.43;2.93;;;13.20;77.40;;;;;;5101322;28;20170;-55
2021/03/18 12:59:45;;;;;;;3.07;2.83;;;13.40;74.70;;;;;;5101413;28;20182;-56
2021/03/18 13:02:10;;;;;;;4.03;3.00;;;13.60;76.70;;;;;;5108176;28;20225;-55
2021/03/18 13:04:36;;;;;;;3.10;2.80;;;14.00;76.30;;;;;;5093104;28;20178;-59
2021/03/18 13:07:02;;;;;;;2.87;2.67;;;14.50;72.50;;;;;;5093098;28;20255;-49
2021/03/18 13:09:28;;;;;;;3.10;2.80;;;14.80;71.30;;;;;;5080541;28;20682;-50